sensor_id;sensor_type;location;lat;lon;timestamp;temperature;humidity
21121;DHT22;12519;43.318;21.898;2023-08-24T00:04:26;27.2;91.0
21121;DHT22;12519;43.318;21.898;2023-08-24T00:09:03;27.2;91.0
21121;DHT22;12519;43.318;21.898;2023-08-24T00:13:39;27.2;90.0
21121;DHT22;12519;43.318;21.898;2023-08-24T00:18:16;27.2;90.0
21121;DHT22;12519;43.318;21.898;2023-08-24T00:22:54;27.2;90.0
21121;DHT22;12519;43.318;21.898;2023-08-24T00:27:31;27.1;90.0
21121;DHT22;12519;43.318;21.898;2023-08-24T00:32:08;27.1;90.0
21121;DHT22;12519;43.318;21.898;2023-08-24T00:36:45;27.0;90.0
21121;DHT22;12519;43.318;21.898;2023-08-24T00:41:22;27.0;90.0
21121;DHT22;12519;43.318;21.898;2023-08-24T00:46:03;27.0;91.0
21121;DHT22;12519;43.318;21.898;2023-08-24T00:50:40;27.0;91.0
21121;DHT22;12519;43.318;21.898;2023-08-24T00:55:17;27.0;91.0
21121;DHT22;12519;43.318;21.898;2023-08-24T00:59:56;27.0;91.0
21121;DHT22;12519;43.318;21.898;2023-08-24T01:04:33;27.0;91.0
21121;DHT22;12519;43.318;21.898;2023-08-24T01:09:10;27.0;91.0
21121;DHT22;12519;43.318;21.898;2023-08-24T01:14:16;26.9;91.0
21121;DHT22;12519;43.318;21.898;2023-08-24T01:19:42;26.9;91.0
21121;DHT22;12519;43.318;21.898;2023-08-24T01:24:53;26.8;91.0
21121;DHT22;12519;43.318;21.898;2023-08-24T01:29:42;26.8;91.0
21121;DHT22;12519;43.318;21.898;2023-08-24T01:34:19;26.8;91.0
21121;DHT22;12519;43.318;21.898;2023-08-24T01:39:24;26.8;91.0
21121;DHT22;12519;43.318;21.898;2023-08-24T01:44:29;26.9;90.0
21121;DHT22;12519;43.318;21.898;2023-08-24T01:49:23;26.9;90.0
21121;DHT22;12519;43.318;21.898;2023-08-24T01:54:05;26.8;90.0
21121;DHT22;12519;43.318;21.898;2023-08-24T01:58:43;26.8;90.0
21121;DHT22;12519;43.318;21.898;2023-08-24T02:03:19;26.8;90.0
21121;DHT22;12519;43.318;21.898;2023-08-24T02:07:56;26.8;90.0
21121;DHT22;12519;43.318;21.898;2023-08-24T02:12:33;26.8;90.0
21121;DHT22;12519;43.318;21.898;2023-08-24T02:17:09;26.8;90.0
21121;DHT22;12519;43.318;21.898;2023-08-24T02:21:45;26.8;90.0
21121;DHT22;12519;43.318;21.898;2023-08-24T02:26:22;26.7;90.0
21121;DHT22;12519;43.318;21.898;2023-08-24T02:31:02;26.7;90.0
21121;DHT22;12519;43.318;21.898;2023-08-24T02:35:40;26.5;90.0
21121;DHT22;12519;43.318;21.898;2023-08-24T02:40:17;26.5;90.0
21121;DHT22;12519;43.318;21.898;2023-08-24T02:44:53;26.3;91.0
21121;DHT22;12519;43.318;21.898;2023-08-24T02:49:30;26.3;91.0
21121;DHT22;12519;43.318;21.898;2023-08-24T02:54:07;26.3;91.0
21121;DHT22;12519;43.318;21.898;2023-08-24T02:58:43;26.3;91.0
21121;DHT22;12519;43.318;21.898;2023-08-24T03:03:20;26.3;91.0
21121;DHT22;12519;43.318;21.898;2023-08-24T03:07:58;26.3;92.0
21121;DHT22;12519;43.318;21.898;2023-08-24T03:12:35;26.3;92.0
21121;DHT22;12519;43.318;21.898;2023-08-24T03:17:12;26.4;91.0
21121;DHT22;12519;43.318;21.898;2023-08-24T03:21:48;26.4;91.0
21121;DHT22;12519;43.318;21.898;2023-08-24T03:26:25;26.5;91.0
21121;DHT22;12519;43.318;21.898;2023-08-24T03:31:02;26.5;91.0
21121;DHT22;12519;43.318;21.898;2023-08-24T03:35:39;26.4;91.0
21121;DHT22;12519;43.318;21.898;2023-08-24T03:40:17;26.4;91.0
21121;DHT22;12519;43.318;21.898;2023-08-24T03:44:53;26.4;91.0
21121;DHT22;12519;43.318;21.898;2023-08-24T03:49:29;26.4;91.0
21121;DHT22;12519;43.318;21.898;2023-08-24T03:54:06;26.4;91.0
21121;DHT22;12519;43.318;21.898;2023-08-24T03:58:43;26.4;91.0
21121;DHT22;12519;43.318;21.898;2023-08-24T04:03:19;26.4;91.0
21121;DHT22;12519;43.318;21.898;2023-08-24T04:07:56;26.3;91.0
21121;DHT22;12519;43.318;21.898;2023-08-24T04:12:33;26.3;91.0
21121;DHT22;12519;43.318;21.898;2023-08-24T04:17:10;26.4;90.0
21121;DHT22;12519;43.318;21.898;2023-08-24T04:21:47;26.4;90.0
21121;DHT22;12519;43.318;21.898;2023-08-24T04:26:23;26.5;90.0
21121;DHT22;12519;43.318;21.898;2023-08-24T04:31:00;26.5;90.0
21121;DHT22;12519;43.318;21.898;2023-08-24T04:35:37;26.4;90.0
21121;DHT22;12519;43.318;21.898;2023-08-24T04:40:13;26.4;90.0
21121;DHT22;12519;43.318;21.898;2023-08-24T04:44:51;26.3;90.0
21121;DHT22;12519;43.318;21.898;2023-08-24T04:49:29;26.3;90.0
21121;DHT22;12519;43.318;21.898;2023-08-24T04:54:06;26.3;90.0
21121;DHT22;12519;43.318;21.898;2023-08-24T04:58:54;26.4;90.0
21121;DHT22;12519;43.318;21.898;2023-08-24T05:03:30;26.4;90.0
21121;DHT22;12519;43.318;21.898;2023-08-24T05:08:07;26.4;89.0
21121;DHT22;12519;43.318;21.898;2023-08-24T05:12:44;26.4;89.0
21121;DHT22;12519;43.318;21.898;2023-08-24T05:17:21;26.2;90.0
21121;DHT22;12519;43.318;21.898;2023-08-24T05:21:57;26.2;90.0
21121;DHT22;12519;43.318;21.898;2023-08-24T05:26:33;25.9;91.0
21121;DHT22;12519;43.318;21.898;2023-08-24T05:31:10;25.9;91.0
21121;DHT22;12519;43.318;21.898;2023-08-24T05:35:47;26.0;91.0
21121;DHT22;12519;43.318;21.898;2023-08-24T05:40:25;26.0;91.0
21121;DHT22;12519;43.318;21.898;2023-08-24T05:45:03;26.1;91.0
21121;DHT22;12519;43.318;21.898;2023-08-24T05:49:41;26.1;91.0
21121;DHT22;12519;43.318;21.898;2023-08-24T05:54:19;26.2;91.0
21121;DHT22;12519;43.318;21.898;2023-08-24T05:58:58;26.2;91.0
21121;DHT22;12519;43.318;21.898;2023-08-24T06:03:35;26.2;91.0
21121;DHT22;12519;43.318;21.898;2023-08-24T06:08:11;26.2;91.0
21121;DHT22;12519;43.318;21.898;2023-08-24T06:12:48;26.2;91.0
21121;DHT22;12519;43.318;21.898;2023-08-24T06:17:24;26.5;90.0
21121;DHT22;12519;43.318;21.898;2023-08-24T06:22:00;26.5;90.0
21121;DHT22;12519;43.318;21.898;2023-08-24T06:26:37;26.8;89.0
21121;DHT22;12519;43.318;21.898;2023-08-24T06:31:13;26.8;89.0
21121;DHT22;12519;43.318;21.898;2023-08-24T06:35:50;26.8;89.0
21121;DHT22;12519;43.318;21.898;2023-08-24T06:40:27;26.8;89.0
21121;DHT22;12519;43.318;21.898;2023-08-24T06:45:09;26.7;89.0
21121;DHT22;12519;43.318;21.898;2023-08-24T06:49:46;26.7;89.0
21121;DHT22;12519;43.318;21.898;2023-08-24T06:54:23;26.7;89.0
21121;DHT22;12519;43.318;21.898;2023-08-24T06:58:59;26.7;89.0
21121;DHT22;12519;43.318;21.898;2023-08-24T07:03:36;26.7;89.0
21121;DHT22;12519;43.318;21.898;2023-08-24T07:08:13;26.7;90.0
21121;DHT22;12519;43.318;21.898;2023-08-24T07:12:50;26.7;90.0
21121;DHT22;12519;43.318;21.898;2023-08-24T07:17:27;26.8;90.0
21121;DHT22;12519;43.318;21.898;2023-08-24T07:22:04;26.8;90.0
21121;DHT22;12519;43.318;21.898;2023-08-24T07:26:41;26.8;90.0
21121;DHT22;12519;43.318;21.898;2023-08-24T07:31:18;26.8;90.0
21121;DHT22;12519;43.318;21.898;2023-08-24T07:35:54;27.5;88.0
21121;DHT22;12519;43.318;21.898;2023-08-24T07:40:30;27.5;88.0
21121;DHT22;12519;43.318;21.898;2023-08-24T07:45:09;28.2;87.0
21121;DHT22;12519;43.318;21.898;2023-08-24T07:49:45;28.2;87.0
21121;DHT22;12519;43.318;21.898;2023-08-24T07:54:21;28.2;87.0
21121;DHT22;12519;43.318;21.898;2023-08-24T07:58:57;28.4;86.0
21121;DHT22;12519;43.318;21.898;2023-08-24T08:03:34;28.4;86.0
21121;DHT22;12519;43.318;21.898;2023-08-24T08:08:10;28.5;85.0
21121;DHT22;12519;43.318;21.898;2023-08-24T08:12:48;28.5;85.0
21121;DHT22;12519;43.318;21.898;2023-08-24T08:17:26;28.8;84.0
21121;DHT22;12519;43.318;21.898;2023-08-24T08:22:04;28.8;84.0
21121;DHT22;12519;43.318;21.898;2023-08-24T08:26:41;29.0;84.0
21121;DHT22;12519;43.318;21.898;2023-08-24T08:31:18;29.0;84.0
21121;DHT22;12519;43.318;21.898;2023-08-24T08:35:55;29.4;83.0
21121;DHT22;12519;43.318;21.898;2023-08-24T08:40:32;29.4;83.0
21121;DHT22;12519;43.318;21.898;2023-08-24T08:45:15;29.8;83.0
21121;DHT22;12519;43.318;21.898;2023-08-24T08:50:04;29.8;83.0
21121;DHT22;12519;43.318;21.898;2023-08-24T08:54:42;30.2;82.0
21121;DHT22;12519;43.318;21.898;2023-08-24T08:59:21;30.2;82.0
21121;DHT22;12519;43.318;21.898;2023-08-24T09:04:01;30.2;82.0
21121;DHT22;12519;43.318;21.898;2023-08-24T09:08:41;30.6;82.0
21121;DHT22;12519;43.318;21.898;2023-08-24T09:13:18;30.6;82.0
21121;DHT22;12519;43.318;21.898;2023-08-24T09:17:55;30.8;80.0
21121;DHT22;12519;43.318;21.898;2023-08-24T09:22:36;30.8;80.0
21121;DHT22;12519;43.318;21.898;2023-08-24T09:27:19;31.0;79.0
21121;DHT22;12519;43.318;21.898;2023-08-24T09:31:57;31.0;79.0
21121;DHT22;12519;43.318;21.898;2023-08-24T09:36:36;31.1;78.0
21121;DHT22;12519;43.318;21.898;2023-08-24T09:41:14;31.1;78.0
21121;DHT22;12519;43.318;21.898;2023-08-24T09:45:55;31.2;78.0
21121;DHT22;12519;43.318;21.898;2023-08-24T09:50:34;31.2;78.0
21121;DHT22;12519;43.318;21.898;2023-08-24T09:55:20;31.2;79.0
21121;DHT22;12519;43.318;21.898;2023-08-24T10:00:14;31.2;79.0
21121;DHT22;12519;43.318;21.898;2023-08-24T10:04:55;31.2;80.0
21121;DHT22;12519;43.318;21.898;2023-08-24T10:09:57;31.2;80.0
21121;DHT22;12519;43.318;21.898;2023-08-24T10:14:58;31.3;80.0
21121;DHT22;12519;43.318;21.898;2023-08-24T10:19:39;31.3;80.0
21121;DHT22;12519;43.318;21.898;2023-08-24T10:24:19;31.3;80.0
21121;DHT22;12519;43.318;21.898;2023-08-24T10:28:57;31.4;80.0
21121;DHT22;12519;43.318;21.898;2023-08-24T10:33:38;31.4;80.0
21121;DHT22;12519;43.318;21.898;2023-08-24T10:38:24;31.4;79.0
21121;DHT22;12519;43.318;21.898;2023-08-24T10:43:05;31.4;79.0
21121;DHT22;12519;43.318;21.898;2023-08-24T10:47:45;31.5;79.0
21121;DHT22;12519;43.318;21.898;2023-08-24T10:52:33;31.5;79.0
21121;DHT22;12519;43.318;21.898;2023-08-24T10:57:19;31.6;79.0
21121;DHT22;12519;43.318;21.898;2023-08-24T11:02:19;31.6;79.0
21121;DHT22;12519;43.318;21.898;2023-08-24T11:06:58;31.8;78.0
21121;DHT22;12519;43.318;21.898;2023-08-24T11:11:36;31.8;78.0
21121;DHT22;12519;43.318;21.898;2023-08-24T11:16:38;32.0;77.0
21121;DHT22;12519;43.318;21.898;2023-08-24T11:21:21;32.0;77.0
21121;DHT22;12519;43.318;21.898;2023-08-24T11:26:01;32.3;77.0
21121;DHT22;12519;43.318;21.898;2023-08-24T11:30:42;32.3;77.0
21121;DHT22;12519;43.318;21.898;2023-08-24T11:35:19;32.3;75.0
21121;DHT22;12519;43.318;21.898;2023-08-24T11:39:56;32.3;75.0
21121;DHT22;12519;43.318;21.898;2023-08-24T11:44:46;32.3;75.0
21121;DHT22;12519;43.318;21.898;2023-08-24T11:49:25;32.3;74.0
21121;DHT22;12519;43.318;21.898;2023-08-24T11:54:03;32.3;74.0
21121;DHT22;12519;43.318;21.898;2023-08-24T11:58:41;32.0;75.0
21121;DHT22;12519;43.318;21.898;2023-08-24T12:03:25;32.0;75.0
21121;DHT22;12519;43.318;21.898;2023-08-24T12:08:03;31.6;76.0
21121;DHT22;12519;43.318;21.898;2023-08-24T12:12:41;31.6;76.0
21121;DHT22;12519;43.318;21.898;2023-08-24T12:17:18;31.4;77.0
21121;DHT22;12519;43.318;21.898;2023-08-24T12:21:55;31.4;77.0
21121;DHT22;12519;43.318;21.898;2023-08-24T12:26:32;31.2;79.0
21121;DHT22;12519;43.318;21.898;2023-08-24T12:31:14;31.2;79.0
21121;DHT22;12519;43.318;21.898;2023-08-24T12:35:55;31.2;79.0
21121;DHT22;12519;43.318;21.898;2023-08-24T12:40:33;31.2;79.0
21121;DHT22;12519;43.318;21.898;2023-08-24T12:45:10;31.1;80.0
21121;DHT22;12519;43.318;21.898;2023-08-24T12:49:47;31.1;80.0
21121;DHT22;12519;43.318;21.898;2023-08-24T12:54:23;31.1;80.0
21121;DHT22;12519;43.318;21.898;2023-08-24T12:58:59;31.0;80.0
21121;DHT22;12519;43.318;21.898;2023-08-24T13:03:35;31.0;80.0
21121;DHT22;12519;43.318;21.898;2023-08-24T13:08:12;31.0;81.0
21121;DHT22;12519;43.318;21.898;2023-08-24T13:12:48;31.0;81.0
21121;DHT22;12519;43.318;21.898;2023-08-24T13:17:24;31.0;80.0
21121;DHT22;12519;43.318;21.898;2023-08-24T13:22:01;31.0;80.0
21121;DHT22;12519;43.318;21.898;2023-08-24T13:26:37;31.0;80.0
21121;DHT22;12519;43.318;21.898;2023-08-24T13:31:14;31.0;80.0
21121;DHT22;12519;43.318;21.898;2023-08-24T13:35:51;31.1;80.0
21121;DHT22;12519;43.318;21.898;2023-08-24T13:40:27;31.1;80.0
21121;DHT22;12519;43.318;21.898;2023-08-24T13:45:05;31.1;80.0
21121;DHT22;12519;43.318;21.898;2023-08-24T13:49:43;31.2;79.0
21121;DHT22;12519;43.318;21.898;2023-08-24T13:54:20;31.2;79.0
21121;DHT22;12519;43.318;21.898;2023-08-24T13:58:57;31.4;78.0
21121;DHT22;12519;43.318;21.898;2023-08-24T14:03:33;31.4;78.0
21121;DHT22;12519;43.318;21.898;2023-08-24T14:08:10;31.5;77.0
21121;DHT22;12519;43.318;21.898;2023-08-24T14:12:46;31.5;77.0
21121;DHT22;12519;43.318;21.898;2023-08-24T14:17:23;31.8;77.0
21121;DHT22;12519;43.318;21.898;2023-08-24T14:21:59;31.8;77.0
21121;DHT22;12519;43.318;21.898;2023-08-24T14:26:35;32.0;76.0
21121;DHT22;12519;43.318;21.898;2023-08-24T14:31:12;32.0;76.0
21121;DHT22;12519;43.318;21.898;2023-08-24T14:35:53;32.1;76.0
21121;DHT22;12519;43.318;21.898;2023-08-24T14:40:30;32.1;76.0
21121;DHT22;12519;43.318;21.898;2023-08-24T14:45:08;32.1;76.0
21121;DHT22;12519;43.318;21.898;2023-08-24T14:49:45;32.2;76.0
21121;DHT22;12519;43.318;21.898;2023-08-24T14:54:22;32.2;76.0
21121;DHT22;12519;43.318;21.898;2023-08-24T14:58:59;32.2;77.0
21121;DHT22;12519;43.318;21.898;2023-08-24T15:03:36;32.2;77.0
21121;DHT22;12519;43.318;21.898;2023-08-24T15:08:14;32.1;77.0
21121;DHT22;12519;43.318;21.898;2023-08-24T15:12:50;32.1;77.0
21121;DHT22;12519;43.318;21.898;2023-08-24T15:17:31;31.8;78.0
21121;DHT22;12519;43.318;21.898;2023-08-24T15:22:08;31.8;78.0
21121;DHT22;12519;43.318;21.898;2023-08-24T15:26:45;31.4;78.0
21121;DHT22;12519;43.318;21.898;2023-08-24T15:31:21;31.4;78.0
21121;DHT22;12519;43.318;21.898;2023-08-24T15:35:58;31.1;79.0
21121;DHT22;12519;43.318;21.898;2023-08-24T15:40:34;31.1;79.0
21121;DHT22;12519;43.318;21.898;2023-08-24T15:45:12;31.1;79.0
21121;DHT22;12519;43.318;21.898;2023-08-24T15:49:49;30.8;79.0
21121;DHT22;12519;43.318;21.898;2023-08-24T15:54:25;30.8;79.0
21121;DHT22;12519;43.318;21.898;2023-08-24T15:59:02;30.6;80.0
21121;DHT22;12519;43.318;21.898;2023-08-24T16:03:38;30.6;80.0
21121;DHT22;12519;43.318;21.898;2023-08-24T16:08:15;30.5;80.0
21121;DHT22;12519;43.318;21.898;2023-08-24T16:12:52;30.5;80.0
21121;DHT22;12519;43.318;21.898;2023-08-24T16:17:29;30.5;81.0
21121;DHT22;12519;43.318;21.898;2023-08-24T16:22:06;30.5;81.0
21121;DHT22;12519;43.318;21.898;2023-08-24T16:26:42;30.5;82.0
21121;DHT22;12519;43.318;21.898;2023-08-24T16:31:19;30.5;82.0
21121;DHT22;12519;43.318;21.898;2023-08-24T16:35:56;30.4;82.0
21121;DHT22;12519;43.318;21.898;2023-08-24T16:40:33;30.4;82.0
21121;DHT22;12519;43.318;21.898;2023-08-24T16:45:10;30.4;82.0
21121;DHT22;12519;43.318;21.898;2023-08-24T16:49:47;30.2;82.0
21121;DHT22;12519;43.318;21.898;2023-08-24T16:54:23;30.2;82.0
21121;DHT22;12519;43.318;21.898;2023-08-24T16:59:00;30.1;82.0
21121;DHT22;12519;43.318;21.898;2023-08-24T17:03:36;30.1;82.0
21121;DHT22;12519;43.318;21.898;2023-08-24T17:08:13;30.0;82.0
21121;DHT22;12519;43.318;21.898;2023-08-24T17:12:49;30.0;82.0
21121;DHT22;12519;43.318;21.898;2023-08-24T17:17:26;29.9;82.0
21121;DHT22;12519;43.318;21.898;2023-08-24T17:22:02;29.9;82.0
21121;DHT22;12519;43.318;21.898;2023-08-24T17:26:40;29.8;82.0
21121;DHT22;12519;43.318;21.898;2023-08-24T17:31:16;29.8;82.0
21121;DHT22;12519;43.318;21.898;2023-08-24T17:35:55;29.7;82.0
21121;DHT22;12519;43.318;21.898;2023-08-24T17:40:33;29.7;82.0
21121;DHT22;12519;43.318;21.898;2023-08-24T17:45:11;29.7;82.0
21121;DHT22;12519;43.318;21.898;2023-08-24T17:49:48;29.6;82.0
21121;DHT22;12519;43.318;21.898;2023-08-24T17:54:25;29.6;82.0
21121;DHT22;12519;43.318;21.898;2023-08-24T17:59:01;29.5;82.0
21121;DHT22;12519;43.318;21.898;2023-08-24T18:03:38;29.5;82.0
21121;DHT22;12519;43.318;21.898;2023-08-24T18:08:15;29.4;82.0
21121;DHT22;12519;43.318;21.898;2023-08-24T18:12:51;29.4;82.0
21121;DHT22;12519;43.318;21.898;2023-08-24T18:17:28;29.4;82.0
21121;DHT22;12519;43.318;21.898;2023-08-24T18:22:04;29.4;82.0
21121;DHT22;12519;43.318;21.898;2023-08-24T18:26:40;29.3;83.0
21121;DHT22;12519;43.318;21.898;2023-08-24T18:31:17;29.3;83.0
21121;DHT22;12519;43.318;21.898;2023-08-24T18:35:54;29.2;83.0
21121;DHT22;12519;43.318;21.898;2023-08-24T18:40:30;29.2;83.0
21121;DHT22;12519;43.318;21.898;2023-08-24T18:45:08;29.2;83.0
21121;DHT22;12519;43.318;21.898;2023-08-24T18:49:46;29.1;84.0
21121;DHT22;12519;43.318;21.898;2023-08-24T18:54:22;29.1;84.0
21121;DHT22;12519;43.318;21.898;2023-08-24T18:58:59;29.0;84.0
21121;DHT22;12519;43.318;21.898;2023-08-24T19:03:36;29.0;84.0
21121;DHT22;12519;43.318;21.898;2023-08-24T19:08:12;29.0;84.0
21121;DHT22;12519;43.318;21.898;2023-08-24T19:12:49;29.0;84.0
21121;DHT22;12519;43.318;21.898;2023-08-24T19:17:27;29.0;85.0
21121;DHT22;12519;43.318;21.898;2023-08-24T19:22:04;29.0;85.0
21121;DHT22;12519;43.318;21.898;2023-08-24T19:26:40;29.0;85.0
21121;DHT22;12519;43.318;21.898;2023-08-24T19:31:16;29.0;85.0
21121;DHT22;12519;43.318;21.898;2023-08-24T19:35:52;28.8;86.0
21121;DHT22;12519;43.318;21.898;2023-08-24T19:40:30;28.8;86.0
21121;DHT22;12519;43.318;21.898;2023-08-24T19:45:11;28.8;86.0
21121;DHT22;12519;43.318;21.898;2023-08-24T19:49:47;28.6;86.0
21121;DHT22;12519;43.318;21.898;2023-08-24T19:54:24;28.6;86.0
21121;DHT22;12519;43.318;21.898;2023-08-24T19:59:01;28.5;87.0
21121;DHT22;12519;43.318;21.898;2023-08-24T20:03:38;28.5;87.0
21121;DHT22;12519;43.318;21.898;2023-08-24T20:08:14;28.4;87.0
21121;DHT22;12519;43.318;21.898;2023-08-24T20:12:51;28.4;87.0
21121;DHT22;12519;43.318;21.898;2023-08-24T20:17:29;28.4;87.0
21121;DHT22;12519;43.318;21.898;2023-08-24T20:22:05;28.4;87.0
21121;DHT22;12519;43.318;21.898;2023-08-24T20:26:42;28.5;88.0
21121;DHT22;12519;43.318;21.898;2023-08-24T20:31:19;28.5;88.0
21121;DHT22;12519;43.318;21.898;2023-08-24T20:35:55;28.5;88.0
21121;DHT22;12519;43.318;21.898;2023-08-24T20:40:32;28.4;88.0
21121;DHT22;12519;43.318;21.898;2023-08-24T20:45:09;28.4;88.0
21121;DHT22;12519;43.318;21.898;2023-08-24T20:49:48;28.3;88.0
21121;DHT22;12519;43.318;21.898;2023-08-24T20:54:26;28.3;88.0
21121;DHT22;12519;43.318;21.898;2023-08-24T20:59:03;28.2;88.0
21121;DHT22;12519;43.318;21.898;2023-08-24T21:03:39;28.2;88.0
21121;DHT22;12519;43.318;21.898;2023-08-24T21:08:15;28.0;89.0
21121;DHT22;12519;43.318;21.898;2023-08-24T21:12:51;28.0;89.0
21121;DHT22;12519;43.318;21.898;2023-08-24T21:17:28;28.0;89.0
21121;DHT22;12519;43.318;21.898;2023-08-24T21:22:04;28.0;89.0
21121;DHT22;12519;43.318;21.898;2023-08-24T21:26:41;28.1;88.0
21121;DHT22;12519;43.318;21.898;2023-08-24T21:31:17;28.1;88.0
21121;DHT22;12519;43.318;21.898;2023-08-24T21:35:54;28.1;88.0
21121;DHT22;12519;43.318;21.898;2023-08-24T21:40:31;27.8;89.0
21121;DHT22;12519;43.318;21.898;2023-08-24T21:45:09;27.8;89.0
21121;DHT22;12519;43.318;21.898;2023-08-24T21:49:47;27.6;90.0
21121;DHT22;12519;43.318;21.898;2023-08-24T21:54:24;27.6;90.0
21121;DHT22;12519;43.318;21.898;2023-08-24T21:59:01;27.6;90.0
21121;DHT22;12519;43.318;21.898;2023-08-24T22:03:37;27.6;90.0
21121;DHT22;12519;43.318;21.898;2023-08-24T22:08:14;27.6;90.0
21121;DHT22;12519;43.318;21.898;2023-08-24T22:12:50;27.6;90.0
21121;DHT22;12519;43.318;21.898;2023-08-24T22:17:27;27.6;90.0
21121;DHT22;12519;43.318;21.898;2023-08-24T22:22:03;27.6;90.0
21121;DHT22;12519;43.318;21.898;2023-08-24T22:26:41;27.7;89.0
21121;DHT22;12519;43.318;21.898;2023-08-24T22:31:18;27.7;89.0
21121;DHT22;12519;43.318;21.898;2023-08-24T22:35:55;27.7;89.0
21121;DHT22;12519;43.318;21.898;2023-08-24T22:40:31;27.7;89.0
21121;DHT22;12519;43.318;21.898;2023-08-24T22:45:08;27.7;89.0
21121;DHT22;12519;43.318;21.898;2023-08-24T22:49:45;27.7;89.0
21121;DHT22;12519;43.318;21.898;2023-08-24T22:54:22;27.7;89.0
21121;DHT22;12519;43.318;21.898;2023-08-24T22:59:00;27.7;89.0
21121;DHT22;12519;43.318;21.898;2023-08-24T23:03:37;27.7;89.0
21121;DHT22;12519;43.318;21.898;2023-08-24T23:08:13;27.7;89.0
21121;DHT22;12519;43.318;21.898;2023-08-24T23:12:50;27.7;89.0
21121;DHT22;12519;43.318;21.898;2023-08-24T23:17:27;27.6;89.0
21121;DHT22;12519;43.318;21.898;2023-08-24T23:22:04;27.6;89.0
21121;DHT22;12519;43.318;21.898;2023-08-24T23:26:41;27.6;89.0
21121;DHT22;12519;43.318;21.898;2023-08-24T23:31:17;27.6;89.0
21121;DHT22;12519;43.318;21.898;2023-08-24T23:35:54;27.6;89.0
21121;DHT22;12519;43.318;21.898;2023-08-24T23:40:30;27.5;89.0
21121;DHT22;12519;43.318;21.898;2023-08-24T23:45:09;27.5;89.0
21121;DHT22;12519;43.318;21.898;2023-08-24T23:49:46;27.4;90.0
21121;DHT22;12519;43.318;21.898;2023-08-24T23:54:22;27.4;90.0
21121;DHT22;12519;43.318;21.898;2023-08-24T23:58:59;27.4;90.0
